sensor_id;sensor_type;location;lat;lon;timestamp;P1;durP1;ratioP1;P2;durP2;ratioP2
71639;SDS011;60912;48.968;10.124;2022-09-30T00:01:19;6.77;;;3.97;;
71639;SDS011;60912;48.968;10.124;2022-09-30T00:03:45;7.65;;;3.58;;
71639;SDS011;60912;48.968;10.124;2022-09-30T00:06:12;9.85;;;3.63;;
71639;SDS011;60912;48.968;10.124;2022-09-30T00:08:37;6.83;;;3.63;;
71639;SDS011;60912;48.968;10.124;2022-09-30T00:11:06;6.97;;;3.38;;
71639;SDS011;60912;48.968;10.124;2022-09-30T00:13:34;5.97;;;3.35;;
71639;SDS011;60912;48.968;10.124;2022-09-30T00:16:01;5.25;;;3.08;;
71639;SDS011;60912;48.968;10.124;2022-09-30T00:18:27;8.00;;;3.67;;
71639;SDS011;60912;48.968;10.124;2022-09-30T00:20:52;8.40;;;3.67;;
71639;SDS011;60912;48.968;10.124;2022-09-30T00:23:19;6.30;;;3.67;;
71639;SDS011;60912;48.968;10.124;2022-09-30T00:25:45;5.97;;;3.47;;
71639;SDS011;60912;48.968;10.124;2022-09-30T00:28:12;9.18;;;3.80;;
71639;SDS011;60912;48.968;10.124;2022-09-30T00:30:37;6.00;;;3.63;;
71639;SDS011;60912;48.968;10.124;2022-09-30T00:33:03;6.97;;;3.57;;
71639;SDS011;60912;48.968;10.124;2022-09-30T00:35:28;5.57;;;3.30;;
71639;SDS011;60912;48.968;10.124;2022-09-30T00:37:53;5.10;;;3.00;;
71639;SDS011;60912;48.968;10.124;2022-09-30T00:40:19;7.23;;;3.30;;
71639;SDS011;60912;48.968;10.124;2022-09-30T00:42:45;7.60;;;3.70;;
71639;SDS011;60912;48.968;10.124;2022-09-30T00:45:10;6.23;;;3.47;;
71639;SDS011;60912;48.968;10.124;2022-09-30T00:47:59;6.47;;;3.70;;
71639;SDS011;60912;48.968;10.124;2022-09-30T00:50:42;9.10;;;4.30;;
71639;SDS011;60912;48.968;10.124;2022-09-30T00:56:04;10.48;;;3.90;;
71639;SDS011;60912;48.968;10.124;2022-09-30T00:58:38;68.10;;;6.18;;
71639;SDS011;60912;48.968;10.124;2022-09-30T01:01:08;37.20;;;5.07;;
71639;SDS011;60912;48.968;10.124;2022-09-30T01:03:34;42.37;;;5.80;;
71639;SDS011;60912;48.968;10.124;2022-09-30T01:06:04;18.33;;;4.60;;
71639;SDS011;60912;48.968;10.124;2022-09-30T01:08:30;10.67;;;5.67;;
71639;SDS011;60912;48.968;10.124;2022-09-30T01:10:59;9.23;;;4.90;;
71639;SDS011;60912;48.968;10.124;2022-09-30T01:13:24;7.60;;;4.30;;
71639;SDS011;60912;48.968;10.124;2022-09-30T01:38:49;17.80;;;3.47;;
71639;SDS011;60912;48.968;10.124;2022-09-30T01:41:26;9.50;;;3.70;;
71639;SDS011;60912;48.968;10.124;2022-09-30T01:44:27;13.80;;;4.20;;
71639;SDS011;60912;48.968;10.124;2022-09-30T01:47:00;30.48;;;4.57;;
71639;SDS011;60912;48.968;10.124;2022-09-30T01:50:15;56.35;;;4.65;;
71639;SDS011;60912;48.968;10.124;2022-09-30T01:52:48;12.77;;;3.97;;
71639;SDS011;60912;48.968;10.124;2022-09-30T01:55:24;39.40;;;5.10;;
71639;SDS011;60912;48.968;10.124;2022-09-30T02:00:37;52.20;;;5.00;;
71639;SDS011;60912;48.968;10.124;2022-09-30T02:03:40;16.55;;;4.55;;
71639;SDS011;60912;48.968;10.124;2022-09-30T02:06:03;80.03;;;5.53;;
71639;SDS011;60912;48.968;10.124;2022-09-30T02:11:15;32.92;;;5.32;;
71639;SDS011;60912;48.968;10.124;2022-09-30T02:16:21;28.60;;;4.78;;
71639;SDS011;60912;48.968;10.124;2022-09-30T02:18:54;18.95;;;4.72;;
71639;SDS011;60912;48.968;10.124;2022-09-30T02:21:29;41.50;;;5.00;;
71639;SDS011;60912;48.968;10.124;2022-09-30T02:23:59;63.72;;;6.10;;
71639;SDS011;60912;48.968;10.124;2022-09-30T02:26:30;70.32;;;6.00;;
71639;SDS011;60912;48.968;10.124;2022-09-30T02:29:41;66.20;;;5.57;;
71639;SDS011;60912;48.968;10.124;2022-09-30T02:32:04;269.63;;;10.85;;
71639;SDS011;60912;48.968;10.124;2022-09-30T02:34:39;53.90;;;6.10;;
71639;SDS011;60912;48.968;10.124;2022-09-30T02:37:14;27.98;;;5.13;;
71639;SDS011;60912;48.968;10.124;2022-09-30T02:42:19;159.05;;;7.55;;
71639;SDS011;60912;48.968;10.124;2022-09-30T02:44:48;64.55;;;5.32;;
71639;SDS011;60912;48.968;10.124;2022-09-30T02:47:42;30.03;;;4.60;;
71639;SDS011;60912;48.968;10.124;2022-09-30T02:50:29;30.48;;;4.65;;
71639;SDS011;60912;48.968;10.124;2022-09-30T02:58:28;183.55;;;7.38;;
71639;SDS011;60912;48.968;10.124;2022-09-30T03:00:54;174.37;;;7.70;;
71639;SDS011;60912;48.968;10.124;2022-09-30T03:03:28;30.00;;;3.50;;
71639;SDS011;60912;48.968;10.124;2022-09-30T03:06:01;31.40;;;4.20;;
71639;SDS011;60912;48.968;10.124;2022-09-30T03:08:27;51.53;;;4.32;;
71639;SDS011;60912;48.968;10.124;2022-09-30T03:10:53;22.23;;;4.17;;
71639;SDS011;60912;48.968;10.124;2022-09-30T03:15:57;50.92;;;4.57;;
71639;SDS011;60912;48.968;10.124;2022-09-30T03:27:09;50.97;;;4.60;;
71639;SDS011;60912;48.968;10.124;2022-09-30T03:34:59;73.00;;;5.50;;
71639;SDS011;60912;48.968;10.124;2022-09-30T03:37:43;96.53;;;5.72;;
71639;SDS011;60912;48.968;10.124;2022-09-30T03:40:15;54.70;;;4.60;;
71639;SDS011;60912;48.968;10.124;2022-09-30T03:42:59;35.47;;;4.10;;
71639;SDS011;60912;48.968;10.124;2022-09-30T03:45:42;66.00;;;5.40;;
71639;SDS011;60912;48.968;10.124;2022-09-30T03:48:12;151.50;;;7.25;;
71639;SDS011;60912;48.968;10.124;2022-09-30T03:50:39;199.55;;;8.02;;
71639;SDS011;60912;48.968;10.124;2022-09-30T03:53:09;21.87;;;4.93;;
71639;SDS011;60912;48.968;10.124;2022-09-30T03:55:43;17.60;;;4.50;;
71639;SDS011;60912;48.968;10.124;2022-09-30T03:58:11;30.73;;;6.15;;
71639;SDS011;60912;48.968;10.124;2022-09-30T04:00:38;41.53;;;5.65;;
71639;SDS011;60912;48.968;10.124;2022-09-30T04:03:10;81.60;;;6.37;;
71639;SDS011;60912;48.968;10.124;2022-09-30T04:05:35;131.90;;;8.40;;
71639;SDS011;60912;48.968;10.124;2022-09-30T04:08:01;194.17;;;9.67;;
71639;SDS011;60912;48.968;10.124;2022-09-30T04:10:26;18.20;;;6.33;;
71639;SDS011;60912;48.968;10.124;2022-09-30T04:12:52;58.93;;;7.63;;
71639;SDS011;60912;48.968;10.124;2022-09-30T04:15:18;38.78;;;7.03;;
71639;SDS011;60912;48.968;10.124;2022-09-30T04:17:43;90.67;;;7.80;;
71639;SDS011;60912;48.968;10.124;2022-09-30T04:20:09;13.60;;;5.50;;
71639;SDS011;60912;48.968;10.124;2022-09-30T04:22:34;9.93;;;5.17;;
71639;SDS011;60912;48.968;10.124;2022-09-30T04:24:59;28.63;;;6.03;;
71639;SDS011;60912;48.968;10.124;2022-09-30T04:27:25;59.10;;;7.03;;
71639;SDS011;60912;48.968;10.124;2022-09-30T04:29:51;104.03;;;7.53;;
71639;SDS011;60912;48.968;10.124;2022-09-30T04:32:16;50.70;;;6.20;;
71639;SDS011;60912;48.968;10.124;2022-09-30T04:34:41;38.90;;;5.73;;
71639;SDS011;60912;48.968;10.124;2022-09-30T04:37:07;46.90;;;5.60;;
71639;SDS011;60912;48.968;10.124;2022-09-30T04:39:32;53.83;;;6.03;;
71639;SDS011;60912;48.968;10.124;2022-09-30T04:41:58;45.57;;;6.07;;
71639;SDS011;60912;48.968;10.124;2022-09-30T04:44:23;55.43;;;6.20;;
71639;SDS011;60912;48.968;10.124;2022-09-30T04:46:48;90.70;;;6.50;;
71639;SDS011;60912;48.968;10.124;2022-09-30T04:49:15;84.93;;;6.60;;
71639;SDS011;60912;48.968;10.124;2022-09-30T04:51:40;80.77;;;6.97;;
71639;SDS011;60912;48.968;10.124;2022-09-30T04:54:08;70.80;;;6.85;;
71639;SDS011;60912;48.968;10.124;2022-09-30T04:56:33;29.30;;;5.10;;
71639;SDS011;60912;48.968;10.124;2022-09-30T04:58:58;61.60;;;6.63;;
71639;SDS011;60912;48.968;10.124;2022-09-30T05:01:24;13.20;;;5.23;;
71639;SDS011;60912;48.968;10.124;2022-09-30T05:03:49;44.70;;;5.60;;
71639;SDS011;60912;48.968;10.124;2022-09-30T05:06:14;18.57;;;5.00;;
71639;SDS011;60912;48.968;10.124;2022-09-30T05:08:40;46.92;;;5.88;;
71639;SDS011;60912;48.968;10.124;2022-09-30T05:11:09;49.77;;;6.07;;
71639;SDS011;60912;48.968;10.124;2022-09-30T05:13:38;15.32;;;5.35;;
71639;SDS011;60912;48.968;10.124;2022-09-30T05:16:05;50.35;;;6.00;;
71639;SDS011;60912;48.968;10.124;2022-09-30T05:18:31;28.52;;;5.35;;
71639;SDS011;60912;48.968;10.124;2022-09-30T05:20:58;97.25;;;7.18;;
71639;SDS011;60912;48.968;10.124;2022-09-30T05:23:24;53.03;;;6.77;;
71639;SDS011;60912;48.968;10.124;2022-09-30T05:25:50;43.50;;;6.43;;
71639;SDS011;60912;48.968;10.124;2022-09-30T05:28:16;65.70;;;7.13;;
71639;SDS011;60912;48.968;10.124;2022-09-30T05:30:42;68.05;;;7.25;;
71639;SDS011;60912;48.968;10.124;2022-09-30T05:33:08;36.97;;;7.10;;
71639;SDS011;60912;48.968;10.124;2022-09-30T05:35:34;59.75;;;7.05;;
71639;SDS011;60912;48.968;10.124;2022-09-30T05:38:00;32.53;;;6.68;;
71639;SDS011;60912;48.968;10.124;2022-09-30T05:40:28;49.88;;;7.32;;
71639;SDS011;60912;48.968;10.124;2022-09-30T05:42:58;17.33;;;6.43;;
71639;SDS011;60912;48.968;10.124;2022-09-30T05:45:24;42.03;;;6.57;;
71639;SDS011;60912;48.968;10.124;2022-09-30T05:47:50;63.75;;;7.32;;
71639;SDS011;60912;48.968;10.124;2022-09-30T05:50:19;27.00;;;6.88;;
71639;SDS011;60912;48.968;10.124;2022-09-30T05:52:46;65.05;;;8.00;;
71639;SDS011;60912;48.968;10.124;2022-09-30T05:55:13;110.43;;;9.30;;
71639;SDS011;60912;48.968;10.124;2022-09-30T05:57:39;63.75;;;9.35;;
71639;SDS011;60912;48.968;10.124;2022-09-30T06:00:04;45.50;;;8.13;;
71639;SDS011;60912;48.968;10.124;2022-09-30T06:02:30;48.13;;;8.45;;
71639;SDS011;60912;48.968;10.124;2022-09-30T06:04:56;23.20;;;10.63;;
71639;SDS011;60912;48.968;10.124;2022-09-30T06:07:21;30.50;;;10.93;;
71639;SDS011;60912;48.968;10.124;2022-09-30T06:09:47;155.17;;;9.87;;
71639;SDS011;60912;48.968;10.124;2022-09-30T06:12:12;54.80;;;7.27;;
71639;SDS011;60912;48.968;10.124;2022-09-30T06:14:38;22.67;;;7.30;;
71639;SDS011;60912;48.968;10.124;2022-09-30T06:17:03;16.80;;;6.67;;
71639;SDS011;60912;48.968;10.124;2022-09-30T06:19:29;20.57;;;7.80;;
71639;SDS011;60912;48.968;10.124;2022-09-30T06:21:55;64.05;;;8.02;;
71639;SDS011;60912;48.968;10.124;2022-09-30T06:24:21;100.70;;;10.13;;
71639;SDS011;60912;48.968;10.124;2022-09-30T06:26:46;75.60;;;8.30;;
71639;SDS011;60912;48.968;10.124;2022-09-30T06:29:12;54.90;;;8.18;;
71639;SDS011;60912;48.968;10.124;2022-09-30T06:31:38;83.77;;;8.37;;
71639;SDS011;60912;48.968;10.124;2022-09-30T06:34:03;105.90;;;9.55;;
71639;SDS011;60912;48.968;10.124;2022-09-30T06:36:30;37.63;;;7.77;;
71639;SDS011;60912;48.968;10.124;2022-09-30T06:38:58;142.65;;;9.43;;
71639;SDS011;60912;48.968;10.124;2022-09-30T06:41:24;118.72;;;9.13;;
71639;SDS011;60912;48.968;10.124;2022-09-30T06:43:51;74.55;;;7.20;;
71639;SDS011;60912;48.968;10.124;2022-09-30T06:46:17;115.80;;;8.00;;
71639;SDS011;60912;48.968;10.124;2022-09-30T06:48:42;13.63;;;4.93;;
71639;SDS011;60912;48.968;10.124;2022-09-30T06:51:07;13.88;;;5.07;;
71639;SDS011;60912;48.968;10.124;2022-09-30T06:53:35;52.80;;;7.57;;
71639;SDS011;60912;48.968;10.124;2022-09-30T06:56:01;58.78;;;8.18;;
71639;SDS011;60912;48.968;10.124;2022-09-30T06:58:26;51.80;;;7.27;;
71639;SDS011;60912;48.968;10.124;2022-09-30T07:00:59;29.77;;;6.80;;
71639;SDS011;60912;48.968;10.124;2022-09-30T07:03:27;56.80;;;7.77;;
71639;SDS011;60912;48.968;10.124;2022-09-30T07:05:55;40.58;;;6.72;;
71639;SDS011;60912;48.968;10.124;2022-09-30T07:08:21;24.70;;;6.78;;
71639;SDS011;60912;48.968;10.124;2022-09-30T07:10:47;59.00;;;8.25;;
71639;SDS011;60912;48.968;10.124;2022-09-30T07:13:12;28.80;;;5.97;;
71639;SDS011;60912;48.968;10.124;2022-09-30T07:15:40;13.77;;;6.57;;
71639;SDS011;60912;48.968;10.124;2022-09-30T07:18:06;18.43;;;6.33;;
71639;SDS011;60912;48.968;10.124;2022-09-30T07:20:32;12.10;;;6.28;;
71639;SDS011;60912;48.968;10.124;2022-09-30T07:22:57;29.67;;;6.20;;
71639;SDS011;60912;48.968;10.124;2022-09-30T07:25:24;16.00;;;6.05;;
71639;SDS011;60912;48.968;10.124;2022-09-30T07:27:49;20.93;;;6.07;;
71639;SDS011;60912;48.968;10.124;2022-09-30T07:30:14;12.15;;;6.20;;
71639;SDS011;60912;48.968;10.124;2022-09-30T07:32:40;18.50;;;6.00;;
71639;SDS011;60912;48.968;10.124;2022-09-30T07:35:05;12.13;;;5.60;;
71639;SDS011;60912;48.968;10.124;2022-09-30T07:37:31;9.70;;;6.20;;
71639;SDS011;60912;48.968;10.124;2022-09-30T07:39:59;10.40;;;6.53;;
71639;SDS011;60912;48.968;10.124;2022-09-30T07:42:25;10.07;;;6.20;;
71639;SDS011;60912;48.968;10.124;2022-09-30T07:44:51;15.03;;;6.80;;
71639;SDS011;60912;48.968;10.124;2022-09-30T07:47:17;10.35;;;6.65;;
71639;SDS011;60912;48.968;10.124;2022-09-30T07:49:43;10.55;;;6.07;;
71639;SDS011;60912;48.968;10.124;2022-09-30T07:52:09;10.67;;;6.37;;
71639;SDS011;60912;48.968;10.124;2022-09-30T07:54:36;9.65;;;6.32;;
71639;SDS011;60912;48.968;10.124;2022-09-30T07:57:02;9.93;;;6.53;;
71639;SDS011;60912;48.968;10.124;2022-09-30T07:59:29;10.82;;;6.88;;
71639;SDS011;60912;48.968;10.124;2022-09-30T08:01:56;9.57;;;6.53;;
71639;SDS011;60912;48.968;10.124;2022-09-30T08:04:22;12.70;;;7.23;;
71639;SDS011;60912;48.968;10.124;2022-09-30T08:06:51;12.05;;;7.85;;
71639;SDS011;60912;48.968;10.124;2022-09-30T08:09:22;10.60;;;6.95;;
71639;SDS011;60912;48.968;10.124;2022-09-30T08:11:49;11.13;;;7.53;;
71639;SDS011;60912;48.968;10.124;2022-09-30T08:14:18;10.70;;;7.80;;
71639;SDS011;60912;48.968;10.124;2022-09-30T08:16:45;12.07;;;8.65;;
71639;SDS011;60912;48.968;10.124;2022-09-30T08:19:15;11.37;;;7.97;;
71639;SDS011;60912;48.968;10.124;2022-09-30T08:21:42;12.23;;;7.40;;
71639;SDS011;60912;48.968;10.124;2022-09-30T08:24:09;11.85;;;8.40;;
71639;SDS011;60912;48.968;10.124;2022-09-30T08:26:35;12.27;;;8.33;;
71639;SDS011;60912;48.968;10.124;2022-09-30T08:29:01;16.58;;;9.95;;
71639;SDS011;60912;48.968;10.124;2022-09-30T08:31:26;16.63;;;9.77;;
71639;SDS011;60912;48.968;10.124;2022-09-30T08:33:52;16.48;;;9.95;;
71639;SDS011;60912;48.968;10.124;2022-09-30T08:36:23;20.63;;;12.18;;
71639;SDS011;60912;48.968;10.124;2022-09-30T08:38:49;16.45;;;10.98;;
71639;SDS011;60912;48.968;10.124;2022-09-30T08:52:39;15.48;;;10.45;;
71639;SDS011;60912;48.968;10.124;2022-09-30T08:55:11;14.07;;;9.80;;
71639;SDS011;60912;48.968;10.124;2022-09-30T08:57:43;15.07;;;10.50;;
71639;SDS011;60912;48.968;10.124;2022-09-30T09:00:13;13.95;;;10.13;;
71639;SDS011;60912;48.968;10.124;2022-09-30T09:02:45;14.40;;;10.03;;
71639;SDS011;60912;48.968;10.124;2022-09-30T09:05:27;15.32;;;9.73;;
71639;SDS011;60912;48.968;10.124;2022-09-30T09:08:03;13.57;;;9.95;;
71639;SDS011;60912;48.968;10.124;2022-09-30T09:10:45;15.32;;;9.52;;
71639;SDS011;60912;48.968;10.124;2022-09-30T09:16:41;14.27;;;9.70;;
71639;SDS011;60912;48.968;10.124;2022-09-30T09:19:24;16.08;;;9.85;;
71639;SDS011;60912;48.968;10.124;2022-09-30T09:21:57;13.85;;;10.05;;
71639;SDS011;60912;48.968;10.124;2022-09-30T09:26:52;16.95;;;10.35;;
71639;SDS011;60912;48.968;10.124;2022-09-30T09:29:35;24.27;;;10.90;;
71639;SDS011;60912;48.968;10.124;2022-09-30T09:32:10;18.40;;;11.07;;
71639;SDS011;60912;48.968;10.124;2022-09-30T09:34:38;15.25;;;10.68;;
71639;SDS011;60912;48.968;10.124;2022-09-30T09:37:07;12.93;;;9.90;;
71639;SDS011;60912;48.968;10.124;2022-09-30T09:48:08;12.30;;;8.15;;
71639;SDS011;60912;48.968;10.124;2022-09-30T09:56:15;13.63;;;8.03;;
71639;SDS011;60912;48.968;10.124;2022-09-30T10:01:32;10.13;;;7.63;;
71639;SDS011;60912;48.968;10.124;2022-09-30T10:04:07;9.80;;;6.07;;
71639;SDS011;60912;48.968;10.124;2022-09-30T10:09:49;9.83;;;7.57;;
71639;SDS011;60912;48.968;10.124;2022-09-30T10:17:17;11.40;;;8.20;;
71639;SDS011;60912;48.968;10.124;2022-09-30T10:19:46;12.48;;;8.00;;
71639;SDS011;60912;48.968;10.124;2022-09-30T10:24:41;10.63;;;8.10;;
71639;SDS011;60912;48.968;10.124;2022-09-30T10:29:53;11.65;;;8.52;;
71639;SDS011;60912;48.968;10.124;2022-09-30T10:32:18;15.18;;;9.98;;
71639;SDS011;60912;48.968;10.124;2022-09-30T10:34:45;10.63;;;7.77;;
71639;SDS011;60912;48.968;10.124;2022-09-30T10:37:14;9.55;;;7.60;;
71639;SDS011;60912;48.968;10.124;2022-09-30T10:39:43;10.15;;;7.90;;
71639;SDS011;60912;48.968;10.124;2022-09-30T10:42:24;12.43;;;8.32;;
71639;SDS011;60912;48.968;10.124;2022-09-30T10:45:15;11.20;;;8.60;;
71639;SDS011;60912;48.968;10.124;2022-09-30T10:47:46;12.25;;;8.50;;
71639;SDS011;60912;48.968;10.124;2022-09-30T10:50:14;10.48;;;7.18;;
71639;SDS011;60912;48.968;10.124;2022-09-30T10:52:54;9.80;;;7.40;;
71639;SDS011;60912;48.968;10.124;2022-09-30T10:55:27;10.85;;;8.23;;
71639;SDS011;60912;48.968;10.124;2022-09-30T10:58:00;9.77;;;7.20;;
71639;SDS011;60912;48.968;10.124;2022-09-30T11:00:46;10.32;;;6.97;;
71639;SDS011;60912;48.968;10.124;2022-09-30T11:03:15;7.85;;;5.88;;
71639;SDS011;60912;48.968;10.124;2022-09-30T11:05:47;9.20;;;6.78;;
71639;SDS011;60912;48.968;10.124;2022-09-30T11:13:33;14.10;;;7.75;;
71639;SDS011;60912;48.968;10.124;2022-09-30T11:18:37;7.85;;;5.68;;
71639;SDS011;60912;48.968;10.124;2022-09-30T11:21:14;7.57;;;5.57;;
71639;SDS011;60912;48.968;10.124;2022-09-30T11:23:43;7.70;;;5.25;;
71639;SDS011;60912;48.968;10.124;2022-09-30T11:32:07;7.05;;;4.38;;
71639;SDS011;60912;48.968;10.124;2022-09-30T11:40:41;7.65;;;4.93;;
71639;SDS011;60912;48.968;10.124;2022-09-30T11:43:29;6.03;;;4.03;;
71639;SDS011;60912;48.968;10.124;2022-09-30T11:52:02;9.95;;;5.53;;
71639;SDS011;60912;48.968;10.124;2022-09-30T11:54:32;8.70;;;6.05;;
71639;SDS011;60912;48.968;10.124;2022-09-30T11:57:10;8.03;;;5.53;;
71639;SDS011;60912;48.968;10.124;2022-09-30T12:02:24;8.30;;;5.17;;
71639;SDS011;60912;48.968;10.124;2022-09-30T12:04:55;8.02;;;4.45;;
71639;SDS011;60912;48.968;10.124;2022-09-30T12:07:35;7.25;;;4.72;;
71639;SDS011;60912;48.968;10.124;2022-09-30T12:10:15;8.68;;;5.43;;
71639;SDS011;60912;48.968;10.124;2022-09-30T12:12:42;7.50;;;5.63;;
71639;SDS011;60912;48.968;10.124;2022-09-30T12:15:13;6.82;;;5.03;;
71639;SDS011;60912;48.968;10.124;2022-09-30T12:17:46;5.88;;;4.47;;
71639;SDS011;60912;48.968;10.124;2022-09-30T12:20:34;6.78;;;4.47;;
71639;SDS011;60912;48.968;10.124;2022-09-30T12:25:56;5.60;;;4.00;;
71639;SDS011;60912;48.968;10.124;2022-09-30T12:28:26;7.78;;;3.80;;
71639;SDS011;60912;48.968;10.124;2022-09-30T12:49:00;5.35;;;1.92;;
71639;SDS011;60912;48.968;10.124;2022-09-30T12:51:30;3.92;;;2.00;;
71639;SDS011;60912;48.968;10.124;2022-09-30T12:57:11;7.60;;;2.25;;
71639;SDS011;60912;48.968;10.124;2022-09-30T12:59:55;4.30;;;1.63;;
71639;SDS011;60912;48.968;10.124;2022-09-30T13:04:54;3.58;;;1.90;;
71639;SDS011;60912;48.968;10.124;2022-09-30T13:28:46;4.07;;;2.30;;
71639;SDS011;60912;48.968;10.124;2022-09-30T13:31:19;6.03;;;4.13;;
71639;SDS011;60912;48.968;10.124;2022-09-30T13:33:46;7.38;;;2.70;;
71639;SDS011;60912;48.968;10.124;2022-09-30T13:36:30;3.83;;;2.20;;
71639;SDS011;60912;48.968;10.124;2022-09-30T13:42:35;5.10;;;2.80;;
71639;SDS011;60912;48.968;10.124;2022-09-30T13:44:39;4.57;;;2.67;;
71639;SDS011;60912;48.968;10.124;2022-09-30T13:47:21;4.43;;;2.60;;
71639;SDS011;60912;48.968;10.124;2022-09-30T13:49:59;3.72;;;2.35;;
71639;SDS011;60912;48.968;10.124;2022-09-30T13:52:42;4.13;;;2.40;;
71639;SDS011;60912;48.968;10.124;2022-09-30T13:55:16;7.20;;;2.90;;
71639;SDS011;60912;48.968;10.124;2022-09-30T14:00:17;4.63;;;2.70;;
71639;SDS011;60912;48.968;10.124;2022-09-30T14:21:55;3.90;;;2.40;;
71639;SDS011;60912;48.968;10.124;2022-09-30T14:26:57;5.25;;;2.40;;
71639;SDS011;60912;48.968;10.124;2022-09-30T14:31:58;4.38;;;2.53;;
71639;SDS011;60912;48.968;10.124;2022-09-30T14:34:25;4.32;;;2.47;;
71639;SDS011;60912;48.968;10.124;2022-09-30T14:36:53;6.07;;;2.50;;
71639;SDS011;60912;48.968;10.124;2022-09-30T14:39:20;5.15;;;2.60;;
71639;SDS011;60912;48.968;10.124;2022-09-30T14:41:57;4.90;;;2.17;;
71639;SDS011;60912;48.968;10.124;2022-09-30T14:44:25;6.88;;;2.60;;
71639;SDS011;60912;48.968;10.124;2022-09-30T14:46:54;5.85;;;2.63;;
71639;SDS011;60912;48.968;10.124;2022-09-30T14:49:25;4.43;;;2.20;;
71639;SDS011;60912;48.968;10.124;2022-09-30T14:51:56;5.47;;;2.20;;
71639;SDS011;60912;48.968;10.124;2022-09-30T14:54:25;4.43;;;2.40;;
71639;SDS011;60912;48.968;10.124;2022-09-30T14:56:53;5.40;;;2.50;;
71639;SDS011;60912;48.968;10.124;2022-09-30T14:59:23;4.40;;;1.83;;
71639;SDS011;60912;48.968;10.124;2022-09-30T15:01:57;4.90;;;2.40;;
71639;SDS011;60912;48.968;10.124;2022-09-30T15:04:34;4.43;;;2.10;;
71639;SDS011;60912;48.968;10.124;2022-09-30T15:07:03;4.10;;;2.13;;
71639;SDS011;60912;48.968;10.124;2022-09-30T15:09:33;10.43;;;5.97;;
71639;SDS011;60912;48.968;10.124;2022-09-30T15:12:03;4.95;;;2.58;;
71639;SDS011;60912;48.968;10.124;2022-09-30T15:14:29;3.97;;;2.10;;
71639;SDS011;60912;48.968;10.124;2022-09-30T15:16:57;5.35;;;2.38;;
71639;SDS011;60912;48.968;10.124;2022-09-30T15:19:24;4.55;;;2.20;;
71639;SDS011;60912;48.968;10.124;2022-09-30T15:22:08;4.28;;;2.20;;
71639;SDS011;60912;48.968;10.124;2022-09-30T15:24:35;3.80;;;2.10;;
71639;SDS011;60912;48.968;10.124;2022-09-30T15:27:01;4.30;;;1.90;;
71639;SDS011;60912;48.968;10.124;2022-09-30T15:29:27;4.65;;;2.20;;
71639;SDS011;60912;48.968;10.124;2022-09-30T15:32:03;4.57;;;2.20;;
71639;SDS011;60912;48.968;10.124;2022-09-30T15:34:39;3.42;;;1.80;;
71639;SDS011;60912;48.968;10.124;2022-09-30T15:37:05;4.05;;;1.90;;
71639;SDS011;60912;48.968;10.124;2022-09-30T15:39:31;4.77;;;2.10;;
71639;SDS011;60912;48.968;10.124;2022-09-30T15:44:57;4.25;;;1.80;;
71639;SDS011;60912;48.968;10.124;2022-09-30T15:47:23;4.70;;;1.80;;
71639;SDS011;60912;48.968;10.124;2022-09-30T15:49:51;5.80;;;2.43;;
71639;SDS011;60912;48.968;10.124;2022-09-30T15:52:25;6.68;;;2.40;;
71639;SDS011;60912;48.968;10.124;2022-09-30T15:54:54;5.90;;;2.53;;
71639;SDS011;60912;48.968;10.124;2022-09-30T16:06:06;4.45;;;2.35;;
71639;SDS011;60912;48.968;10.124;2022-09-30T16:08:42;5.57;;;2.60;;
71639;SDS011;60912;48.968;10.124;2022-09-30T16:11:24;4.05;;;2.30;;
71639;SDS011;60912;48.968;10.124;2022-09-30T16:13:52;4.45;;;2.40;;
71639;SDS011;60912;48.968;10.124;2022-09-30T16:16:22;4.90;;;2.83;;
71639;SDS011;60912;48.968;10.124;2022-09-30T16:18:51;4.63;;;2.45;;
71639;SDS011;60912;48.968;10.124;2022-09-30T16:26:52;7.18;;;3.00;;
71639;SDS011;60912;48.968;10.124;2022-09-30T16:29:19;5.57;;;3.20;;
71639;SDS011;60912;48.968;10.124;2022-09-30T16:31:47;5.00;;;2.63;;
71639;SDS011;60912;48.968;10.124;2022-09-30T16:34:27;4.63;;;2.60;;
71639;SDS011;60912;48.968;10.124;2022-09-30T16:36:54;6.40;;;2.75;;
71639;SDS011;60912;48.968;10.124;2022-09-30T16:39:27;5.72;;;2.50;;
71639;SDS011;60912;48.968;10.124;2022-09-30T16:41:52;7.93;;;2.87;;
71639;SDS011;60912;48.968;10.124;2022-09-30T16:44:18;6.70;;;2.83;;
71639;SDS011;60912;48.968;10.124;2022-09-30T16:46:49;5.60;;;2.90;;
71639;SDS011;60912;48.968;10.124;2022-09-30T16:49:16;6.72;;;3.20;;
71639;SDS011;60912;48.968;10.124;2022-09-30T16:51:43;6.93;;;4.22;;
71639;SDS011;60912;48.968;10.124;2022-09-30T16:54:09;7.97;;;3.90;;
71639;SDS011;60912;48.968;10.124;2022-09-30T16:56:35;9.15;;;4.13;;
71639;SDS011;60912;48.968;10.124;2022-09-30T16:59:01;11.33;;;5.87;;
71639;SDS011;60912;48.968;10.124;2022-09-30T17:01:26;11.10;;;6.20;;
71639;SDS011;60912;48.968;10.124;2022-09-30T17:03:52;11.23;;;5.70;;
71639;SDS011;60912;48.968;10.124;2022-09-30T17:06:25;11.20;;;5.25;;
71639;SDS011;60912;48.968;10.124;2022-09-30T17:08:52;17.60;;;8.13;;
71639;SDS011;60912;48.968;10.124;2022-09-30T17:11:18;8.77;;;4.87;;
71639;SDS011;60912;48.968;10.124;2022-09-30T17:13:48;8.32;;;4.35;;
71639;SDS011;60912;48.968;10.124;2022-09-30T17:16:14;7.77;;;4.17;;
71639;SDS011;60912;48.968;10.124;2022-09-30T17:18:39;8.77;;;4.13;;
71639;SDS011;60912;48.968;10.124;2022-09-30T17:21:04;6.57;;;3.67;;
71639;SDS011;60912;48.968;10.124;2022-09-30T17:23:33;6.38;;;3.50;;
71639;SDS011;60912;48.968;10.124;2022-09-30T17:25:58;9.70;;;3.60;;
71639;SDS011;60912;48.968;10.124;2022-09-30T17:28:24;7.27;;;4.20;;
71639;SDS011;60912;48.968;10.124;2022-09-30T17:30:49;7.60;;;4.03;;
71639;SDS011;60912;48.968;10.124;2022-09-30T17:33:15;7.37;;;4.10;;
71639;SDS011;60912;48.968;10.124;2022-09-30T17:35:42;7.03;;;3.67;;
71639;SDS011;60912;48.968;10.124;2022-09-30T17:38:08;6.67;;;3.70;;
71639;SDS011;60912;48.968;10.124;2022-09-30T17:40:35;7.15;;;4.30;;
71639;SDS011;60912;48.968;10.124;2022-09-30T17:43:20;6.30;;;4.22;;
71639;SDS011;60912;48.968;10.124;2022-09-30T17:45:46;11.77;;;5.80;;
71639;SDS011;60912;48.968;10.124;2022-09-30T17:48:16;12.48;;;7.50;;
71639;SDS011;60912;48.968;10.124;2022-09-30T17:50:43;15.95;;;9.25;;
71639;SDS011;60912;48.968;10.124;2022-09-30T17:53:10;10.15;;;7.47;;
71639;SDS011;60912;48.968;10.124;2022-09-30T17:55:43;11.90;;;7.20;;
71639;SDS011;60912;48.968;10.124;2022-09-30T17:58:13;11.97;;;6.13;;
71639;SDS011;60912;48.968;10.124;2022-09-30T18:00:39;10.55;;;7.30;;
71639;SDS011;60912;48.968;10.124;2022-09-30T18:03:05;13.00;;;8.00;;
71639;SDS011;60912;48.968;10.124;2022-09-30T18:05:32;14.30;;;7.55;;
71639;SDS011;60912;48.968;10.124;2022-09-30T18:07:58;12.87;;;8.83;;
71639;SDS011;60912;48.968;10.124;2022-09-30T18:10:24;22.37;;;11.63;;
71639;SDS011;60912;48.968;10.124;2022-09-30T18:12:53;17.80;;;10.77;;
71639;SDS011;60912;48.968;10.124;2022-09-30T18:15:19;20.08;;;12.30;;
71639;SDS011;60912;48.968;10.124;2022-09-30T18:17:46;24.40;;;13.27;;
71639;SDS011;60912;48.968;10.124;2022-09-30T18:20:11;31.47;;;18.10;;
71639;SDS011;60912;48.968;10.124;2022-09-30T18:22:37;22.20;;;12.50;;
71639;SDS011;60912;48.968;10.124;2022-09-30T18:25:03;17.30;;;10.00;;
71639;SDS011;60912;48.968;10.124;2022-09-30T18:27:45;18.00;;;11.68;;
71639;SDS011;60912;48.968;10.124;2022-09-30T18:30:19;16.27;;;11.13;;